Beesel, Netherlands
Current Conditions -  °F | °C
As of 7:20 PM on Thursday 18 Dec 2014 (Local Time) from EDLN Reporting Station
Broken Clouds Broken Clouds  
Wind Chill: 55°   Ceiling: 1800
Heat Index: 55°   Visibility: 6mi
Dew Point: 50°   Wind: 16mph
Humidity: 82%   Direction: 240°WSW
Pressure: 29.88"   Gusts: 28mph
Location:  51.27°N, 6.04°E
Report Text: EDLN 181820Z 24014G24KT 220V290 9999 BKN018 13/10 Q1012
Loading
Personal Weather Stations






























Interactive Weather Map New forecast layout! Learn more

10-Day Weather Forecast

Advertisements
Track Severe Weather on mobile